Time;durP1;ratioP1;P1;durP2;ratioP2;P2;SDS_P1;SDS_P2;PMS_P1;PMS_P2;Temp;Humidity;BMP_temperature;BMP_pressure;BME280_temperature;BME280_humidity;BME280_pressure;Samples;Min_cycle;Max_cycle;Signal;HPM_P1;HPM_P2
2022/04/06 00:01:47;;;;;;;27.02;8.93;;;;;;;;;;5137249;27;20051;-56
2022/04/06 00:04:13;;;;;;;25.15;9.55;;;;;;;;;;5137324;27;20059;-57
2022/04/06 00:06:39;;;;;;;25.85;9.85;;;;;;;;;;5137074;27;20046;-55
2022/04/06 00:09:06;;;;;;;27.00;8.75;;;;;;;;;;5137006;27;20035;-58
2022/04/06 00:11:32;;;;;;;24.73;10.00;;;;;;;;;;5137003;27;20396;-58
2022/04/06 00:13:58;;;;;;;26.67;9.95;;;;;;;;;;5119104;27;20050;-57
2022/04/06 00:16:25;;;;;;;30.83;10.95;;;;;;;;;;5136864;27;20054;-59
2022/04/06 00:18:54;;;;;;;24.33;11.32;;;;;;;;;;5119522;27;20055;-59
2022/04/06 00:21:23;;;;;;;26.50;10.07;;;;;;;;;;5137072;27;20377;-58
2022/04/06 00:23:49;;;;;;;31.48;12.55;;;;;;;;;;5137041;27;20050;-60
2022/04/06 00:26:15;;;;;;;28.00;11.38;;;;;;;;;;5136466;27;20130;-59
2022/04/06 00:28:41;;;;;;;30.27;13.18;;;;;;;;;;5136689;27;20050;-59
2022/04/06 00:31:07;;;;;;;36.03;13.43;;;;;;;;;;5137439;27;20345;-60
2022/04/06 00:33:33;;;;;;;38.30;13.50;;;;;;;;;;5137036;27;20437;-59
2022/04/06 00:35:59;;;;;;;33.13;13.90;;;;;;;;;;5136521;27;20078;-61
2022/04/06 00:38:26;;;;;;;26.73;10.75;;;;;;;;;;5136497;27;20091;-65
2022/04/06 00:40:52;;;;;;;35.13;13.05;;;;;;;;;;5136414;27;20083;-64
2022/04/06 00:43:18;;;;;;;26.55;12.48;;;;;;;;;;5136416;27;20051;-65
2022/04/06 00:45:44;;;;;;;37.33;13.85;;;;;;;;;;5118283;27;20126;-65
2022/04/06 00:48:12;;;;;;;39.65;14.07;;;;;;;;;;5136069;27;20484;-66
2022/04/06 00:50:39;;;;;;;28.80;14.13;;;;;;;;;;5136762;27;20043;-66
2022/04/06 00:53:05;;;;;;;28.10;11.85;;;;;;;;;;5136478;27;20054;-65
2022/04/06 00:55:34;;;;;;;31.98;12.90;;;;;;;;;;5136133;27;20079;-67
2022/04/06 00:58:00;;;;;;;31.63;13.40;;;;;;;;;;5136184;27;20071;-64
2022/04/06 01:00:26;;;;;;;34.60;12.43;;;;;;;;;;5135961;27;20043;-65
2022/04/06 01:02:53;;;;;;;35.25;13.05;;;;;;;;;;5135703;27;20057;-64
2022/04/06 01:05:19;;;;;;;36.08;14.27;;;;;;;;;;5136024;27;20055;-62
2022/04/06 01:07:49;;;;;;;36.67;12.70;;;;;;;;;;5135915;27;20047;-63
2022/04/06 01:10:15;;;;;;;33.75;13.90;;;;;;;;;;5117525;27;20127;-63
2022/04/06 01:12:41;;;;;;;38.03;13.55;;;;;;;;;;5117453;27;20082;-64
2022/04/06 01:15:08;;;;;;;26.23;11.18;;;;;;;;;;5118514;27;20443;-66
2022/04/06 01:17:34;;;;;;;24.23;10.30;;;;;;;;;;5135941;27;20114;-63
2022/04/06 01:20:01;;;;;;;26.10;10.07;;;;;;;;;;5117309;27;20043;-65
2022/04/06 01:22:27;;;;;;;22.70;9.77;;;;;;;;;;5135599;27;20047;-64
2022/04/06 01:24:53;;;;;;;29.60;9.73;;;;;;;;;;5117182;27;20408;-64
2022/04/06 01:27:20;;;;;;;20.23;8.55;;;;;;;;;;5118012;27;20089;-65
2022/04/06 01:29:46;;;;;;;20.83;8.20;;;;;;;;;;5135424;27;20075;-64
2022/04/06 01:32:12;;;;;;;17.95;7.45;;;;;;;;;;5117866;27;20043;-65
2022/04/06 01:34:39;;;;;;;16.42;7.97;;;;;;;;;;5135402;27;20051;-64
2022/04/06 01:37:06;;;;;;;18.00;7.25;;;;;;;;;;5136161;27;20110;-59
2022/04/06 01:39:33;;;;;;;23.67;7.68;;;;;;;;;;5135223;27;20039;-59
2022/04/06 01:41:59;;;;;;;23.42;8.68;;;;;;;;;;5135254;27;20148;-59
2022/04/06 01:44:25;;;;;;;13.68;6.28;;;;;;;;;;5117933;27;20131;-60
2022/04/06 01:46:52;;;;;;;18.83;6.50;;;;;;;;;;5135165;27;20472;-59
2022/04/06 01:52:12;;;;;;;19.92;6.35;;;;;;;;;;5135998;27;20086;-63
2022/04/06 01:54:44;;;;;;;15.13;5.88;;;;;;;;;;5135744;27;20047;-60
2022/04/06 01:57:10;;;;;;;18.33;6.10;;;;;;;;;;5135001;27;20050;-63
2022/04/06 01:59:36;;;;;;;18.05;4.90;;;;;;;;;;5134935;27;20046;-61
2022/04/06 02:02:04;;;;;;;18.40;5.97;;;;;;;;;;5099820;27;20047;-61
2022/04/06 02:04:31;;;;;;;17.63;6.07;;;;;;;;;;5117236;27;20050;-61
2022/04/06 02:06:57;;;;;;;15.85;5.25;;;;;;;;;;5116544;27;20043;-62
2022/04/06 02:09:23;;;;;;;19.13;5.15;;;;;;;;;;5134879;27;20043;-60
2022/04/06 02:11:49;;;;;;;17.90;5.97;;;;;;;;;;5135330;27;20047;-61
2022/04/06 02:14:16;;;;;;;15.10;4.78;;;;;;;;;;5135033;27;20078;-60
2022/04/06 02:16:42;;;;;;;14.23;4.32;;;;;;;;;;5117152;27;20100;-61
2022/04/06 02:19:09;;;;;;;14.70;4.45;;;;;;;;;;5135267;27;20047;-63
2022/04/06 02:21:35;;;;;;;16.42;4.55;;;;;;;;;;5135564;28;20488;-60
2022/04/06 02:24:01;;;;;;;12.10;4.72;;;;;;;;;;5135293;28;20388;-62
2022/04/06 02:26:28;;;;;;;13.38;4.22;;;;;;;;;;5135225;28;20043;-60
2022/04/06 02:28:59;;;;;;;15.45;4.43;;;;;;;;;;5117370;28;20051;-59
2022/04/06 02:31:25;;;;;;;13.05;4.28;;;;;;;;;;5134681;28;20046;-60
2022/04/06 02:33:51;;;;;;;12.40;4.15;;;;;;;;;;5116525;28;20083;-60
2022/04/06 02:36:17;;;;;;;13.95;4.78;;;;;;;;;;5134598;28;20058;-59
2022/04/06 02:38:44;;;;;;;14.20;3.83;;;;;;;;;;5135095;28;20046;-58
2022/04/06 02:41:10;;;;;;;11.80;3.33;;;;;;;;;;5115900;28;20043;-59
2022/04/06 02:43:36;;;;;;;15.52;3.80;;;;;;;;;;5134488;28;20373;-59
2022/04/06 02:46:03;;;;;;;11.93;3.90;;;;;;;;;;5134520;28;20050;-59
2022/04/06 02:48:29;;;;;;;11.95;3.90;;;;;;;;;;5134447;27;20091;-58
2022/04/06 02:50:55;;;;;;;7.82;3.33;;;;;;;;;;5120374;27;20395;-59
2022/04/06 02:53:22;;;;;;;10.88;2.95;;;;;;;;;;5139359;27;20361;-58
2022/04/06 02:55:48;;;;;;;12.35;3.53;;;;;;;;;;5119984;27;20518;-55
2022/04/06 02:58:14;;;;;;;6.30;2.75;;;;;;;;;;5120838;27;20380;-58
2022/04/06 03:00:40;;;;;;;9.40;2.80;;;;;;;;;;5138567;27;20035;-54
2022/04/06 03:03:06;;;;;;;9.05;2.22;;;;;;;;;;5119768;27;20062;-55
2022/04/06 03:05:33;;;;;;;8.68;2.40;;;;;;;;;;5138262;27;20151;-52
2022/04/06 03:07:59;;;;;;;10.63;2.70;;;;;;;;;;5138213;27;20140;-54
2022/04/06 03:10:25;;;;;;;11.68;3.25;;;;;;;;;;5138733;27;20046;-50
2022/04/06 03:12:51;;;;;;;8.88;2.03;;;;;;;;;;5138131;27;20086;-54
2022/04/06 03:15:17;;;;;;;8.48;2.22;;;;;;;;;;5119756;27;20134;-53
2022/04/06 03:17:43;;;;;;;5.00;1.92;;;;;;;;;;5138043;27;20488;-49
2022/04/06 03:20:13;;;;;;;5.93;2.15;;;;;;;;;;5137921;27;20043;-55
2022/04/06 03:22:39;;;;;;;5.53;2.22;;;;;;;;;;5137692;27;20508;-55
2022/04/06 03:25:06;;;;;;;7.25;2.28;;;;;;;;;;5137906;27;20043;-54
2022/04/06 03:27:33;;;;;;;9.52;2.63;;;;;;;;;;5103028;27;20047;-57
2022/04/06 03:30:00;;;;;;;8.98;3.42;;;;;;;;;;5137820;27;20039;-56
2022/04/06 03:32:26;;;;;;;9.38;2.80;;;;;;;;;;5137458;27;20404;-56
2022/04/06 03:34:53;;;;;;;8.07;3.22;;;;;;;;;;5137589;27;20054;-55
2022/04/06 03:37:19;;;;;;;12.57;3.50;;;;;;;;;;5137669;27;20051;-55
2022/04/06 03:39:45;;;;;;;9.93;2.83;;;;;;;;;;5138094;27;20039;-52
2022/04/06 03:42:11;;;;;;;11.35;3.25;;;;;;;;;;5137580;27;20128;-52
2022/04/06 03:44:37;;;;;;;12.35;3.83;;;;;;;;;;5137496;27;20047;-48
2022/04/06 03:47:03;;;;;;;10.27;3.88;;;;;;;;;;5137468;27;20082;-47
2022/04/06 03:49:29;;;;;;;16.17;4.22;;;;;;;;;;5137717;27;20035;-51
2022/04/06 03:51:55;;;;;;;10.10;3.63;;;;;;;;;;5137354;27;20051;-47
2022/04/06 03:54:21;;;;;;;12.75;3.75;;;;;;;;;;5118672;27;20531;-47
2022/04/06 03:56:48;;;;;;;10.93;3.90;;;;;;;;;;5137329;27;20111;-48
2022/04/06 03:59:14;;;;;;;7.25;3.83;;;;;;;;;;5119103;27;20078;-49
2022/04/06 04:01:40;;;;;;;13.50;4.38;;;;;;;;;;5136001;27;20039;-50
2022/04/06 04:04:06;;;;;;;11.70;4.25;;;;;;;;;;5118412;27;20087;-48
2022/04/06 04:06:32;;;;;;;10.43;4.93;;;;;;;;;;5137104;27;20054;-51
2022/04/06 04:08:59;;;;;;;19.17;5.80;;;;;;;;;;5137033;27;20051;-48
2022/04/06 04:11:25;;;;;;;12.70;4.55;;;;;;;;;;5137027;27;20050;-47
2022/04/06 04:13:51;;;;;;;13.48;5.10;;;;;;;;;;5118619;27;20047;-52
2022/04/06 04:16:17;;;;;;;12.85;5.80;;;;;;;;;;5136950;27;20043;-55
2022/04/06 04:18:43;;;;;;;12.35;4.82;;;;;;;;;;5136882;27;20039;-55
2022/04/06 04:23:53;;;;;;;16.98;6.13;;;;;;;;;;5136804;27;20047;-55
2022/04/06 04:26:20;;;;;;;13.23;4.97;;;;;;;;;;5118445;27;20070;-54
2022/04/06 04:28:46;;;;;;;12.60;5.28;;;;;;;;;;5137540;27;20372;-57
2022/04/06 04:31:12;;;;;;;15.57;5.32;;;;;;;;;;5119107;27;20058;-58
2022/04/06 04:33:38;;;;;;;22.25;6.53;;;;;;;;;;5136500;27;20039;-59
2022/04/06 04:36:04;;;;;;;15.70;5.53;;;;;;;;;;5118181;27;20399;-60
2022/04/06 04:38:30;;;;;;;19.15;6.07;;;;;;;;;;5136788;27;20043;-59
2022/04/06 04:40:57;;;;;;;15.50;5.75;;;;;;;;;;5136373;27;20043;-59
2022/04/06 04:43:23;;;;;;;16.02;6.75;;;;;;;;;;5118334;27;20055;-59
2022/04/06 04:45:49;;;;;;;14.80;5.60;;;;;;;;;;5137146;27;20051;-57
2022/04/06 04:48:15;;;;;;;21.83;6.78;;;;;;;;;;5136299;27;20125;-55
2022/04/06 04:50:41;;;;;;;18.05;7.00;;;;;;;;;;5135900;27;20488;-53
2022/04/06 04:53:08;;;;;;;17.48;7.10;;;;;;;;;;5136172;27;20044;-50
2022/04/06 04:55:34;;;;;;;14.07;5.82;;;;;;;;;;5136207;27;20050;-51
2022/04/06 04:58:00;;;;;;;13.38;6.30;;;;;;;;;;5136110;27;20086;-49
2022/04/06 05:00:26;;;;;;;22.15;6.80;;;;;;;;;;5135676;27;20412;-51
2022/04/06 05:02:52;;;;;;;19.70;6.95;;;;;;;;;;5135817;27;20050;-51
2022/04/06 05:05:19;;;;;;;19.88;6.47;;;;;;;;;;5136271;27;20051;-55
2022/04/06 05:07:45;;;;;;;18.55;5.35;;;;;;;;;;5135854;27;20058;-57
2022/04/06 05:10:11;;;;;;;21.52;6.35;;;;;;;;;;5135884;27;20381;-57
2022/04/06 05:12:37;;;;;;;18.63;6.45;;;;;;;;;;5135510;27;20043;-56
2022/04/06 05:15:07;;;;;;;26.25;6.35;;;;;;;;;;5135423;27;20495;-58
2022/04/06 05:17:36;;;;;;;16.73;5.47;;;;;;;;;;5135678;27;20498;-58
2022/04/06 05:20:02;;;;;;;21.75;6.93;;;;;;;;;;5136414;27;20121;-57
2022/04/06 05:22:28;;;;;;;20.05;4.85;;;;;;;;;;5117491;27;20130;-49
2022/04/06 05:24:54;;;;;;;15.30;6.80;;;;;;;;;;5135429;27;20568;-46
2022/04/06 05:27:20;;;;;;;14.55;5.18;;;;;;;;;;5100982;27;20083;-39
2022/04/06 05:29:46;;;;;;;15.45;5.47;;;;;;;;;;5135372;27;20039;-39
2022/04/06 05:32:12;;;;;;;16.95;5.03;;;;;;;;;;5135325;27;20047;-39
2022/04/06 05:34:38;;;;;;;21.55;6.18;;;;;;;;;;5135331;27;20090;-39
2022/04/06 05:37:05;;;;;;;23.88;8.15;;;;;;;;;;5117183;27;20047;-39
2022/04/06 05:39:31;;;;;;;18.95;6.55;;;;;;;;;;5135899;27;20062;-40
2022/04/06 05:41:57;;;;;;;15.85;5.85;;;;;;;;;;5135244;27;20047;-39
2022/04/06 05:44:23;;;;;;;13.30;4.63;;;;;;;;;;5135122;27;20377;-39
2022/04/06 05:46:49;;;;;;;13.55;5.28;;;;;;;;;;5116974;27;20396;-38
2022/04/06 05:49:15;;;;;;;13.48;4.82;;;;;;;;;;5135295;27;20091;-37
2022/04/06 05:51:41;;;;;;;17.65;7.43;;;;;;;;;;5135082;27;20047;-36
2022/04/06 05:54:07;;;;;;;14.85;5.47;;;;;;;;;;5116823;27;20051;-38
2022/04/06 05:56:33;;;;;;;14.10;5.57;;;;;;;;;;5134984;27;20396;-38
2022/04/06 05:59:00;;;;;;;17.80;7.45;;;;;;;;;;5134833;27;20047;-38
2022/04/06 06:01:26;;;;;;;16.15;6.78;;;;;;;;;;5134613;27;20449;-38
2022/04/06 06:03:52;;;;;;;18.13;7.63;;;;;;;;;;5116401;27;20059;-38
2022/04/06 06:06:18;;;;;;;16.25;5.78;;;;;;;;;;5135648;27;20081;-38
2022/04/06 06:08:45;;;;;;;17.42;6.93;;;;;;;;;;5135338;27;20043;-38
2022/04/06 06:11:11;;;;;;;22.35;8.82;;;;;;;;;;5134736;27;20046;-38
2022/04/06 06:13:37;;;;;;;18.35;6.38;;;;;;;;;;5134744;27;20054;-37
2022/04/06 06:16:05;;;;;;;14.02;5.82;;;;;;;;;;5134693;27;20535;-37
2022/04/06 06:18:31;;;;;;;14.85;5.43;;;;;;;;;;5134674;27;20043;-37
2022/04/06 06:21:00;;;;;;;16.30;6.15;;;;;;;;;;5134585;27;20052;-36
2022/04/06 06:23:27;;;;;;;10.82;5.18;;;;;;;;;;5134096;27;20044;-36
2022/04/06 06:25:53;;;;;;;9.52;4.85;;;;;;;;;;5134545;28;20053;-36
2022/04/06 06:28:19;;;;;;;9.32;4.32;;;;;;;;;;5134574;28;20510;-36
2022/04/06 06:30:45;;;;;;;13.65;5.35;;;;;;;;;;5134531;28;20047;-37
2022/04/06 06:33:12;;;;;;;13.27;4.65;;;;;;;;;;5116140;28;20051;-36
2022/04/06 06:35:38;;;;;;;19.77;6.47;;;;;;;;;;5134482;28;20499;-36
2022/04/06 06:38:05;;;;;;;9.63;4.13;;;;;;;;;;5134461;28;20039;-35
2022/04/06 06:40:31;;;;;;;15.35;5.13;;;;;;;;;;5134384;28;20495;-35
2022/04/06 06:42:57;;;;;;;15.82;5.80;;;;;;;;;;5116101;28;20051;-34
2022/04/06 06:45:23;;;;;;;13.25;5.30;;;;;;;;;;5134181;28;20400;-34
2022/04/06 06:47:49;;;;;;;11.52;4.22;;;;;;;;;;5134950;28;20043;-34
2022/04/06 06:50:16;;;;;;;22.63;4.18;;;;;;;;;;5134613;28;20380;-34
2022/04/06 06:52:42;;;;;;;20.75;5.63;;;;;;;;;;5134358;28;20043;-34
2022/04/06 06:55:09;;;;;;;13.23;3.67;;;;;;;;;;5134308;28;20488;-35
2022/04/06 06:57:36;;;;;;;11.95;4.30;;;;;;;;;;5134026;28;20408;-34
2022/04/06 07:00:03;;;;;;;14.88;5.03;;;;;;;;;;5134201;28;20088;-34
2022/04/06 07:02:29;;;;;;;8.95;3.97;;;;;;;;;;5134528;28;20139;-34
2022/04/06 07:04:55;;;;;;;18.48;5.97;;;;;;;;;;5134831;28;20062;-34
2022/04/06 07:07:21;;;;;;;16.67;4.95;;;;;;;;;;5134277;28;20101;-34
2022/04/06 07:09:47;;;;;;;24.48;8.32;;;;;;;;;;5116028;28;20043;-35
2022/04/06 07:12:13;;;;;;;16.40;5.53;;;;;;;;;;5135013;28;20043;-34
2022/04/06 07:14:40;;;;;;;16.48;5.85;;;;;;;;;;5116585;28;20100;-34
2022/04/06 07:17:06;;;;;;;16.00;5.15;;;;;;;;;;5116096;28;20047;-35
2022/04/06 07:19:32;;;;;;;11.85;4.72;;;;;;;;;;5115505;28;20564;-33
2022/04/06 07:21:58;;;;;;;12.45;4.45;;;;;;;;;;5134871;28;20142;-34
2022/04/06 07:24:24;;;;;;;13.27;4.43;;;;;;;;;;5134055;28;20412;-34
2022/04/06 07:26:50;;;;;;;10.52;3.20;;;;;;;;;;5134817;28;20042;-34
2022/04/06 07:29:16;;;;;;;12.18;3.72;;;;;;;;;;5115728;28;20047;-33
2022/04/06 07:31:43;;;;;;;10.40;4.05;;;;;;;;;;5133654;28;20469;-33
2022/04/06 07:34:09;;;;;;;7.78;3.38;;;;;;;;;;5134137;28;20408;-33
2022/04/06 07:36:35;;;;;;;16.42;4.88;;;;;;;;;;5118669;27;20085;-34
2022/04/06 07:39:03;;;;;;;18.52;5.88;;;;;;;;;;5137470;27;20091;-33
2022/04/06 07:41:29;;;;;;;13.52;4.35;;;;;;;;;;5138180;27;20090;-35
2022/04/06 07:43:55;;;;;;;12.65;4.97;;;;;;;;;;5138074;27;20058;-34
2022/04/06 07:46:21;;;;;;;19.48;5.75;;;;;;;;;;5137458;27;20183;-33
2022/04/06 07:48:48;;;;;;;11.13;4.78;;;;;;;;;;5120156;27;20050;-33
2022/04/06 07:51:14;;;;;;;17.55;6.07;;;;;;;;;;5137331;27;20046;-33
2022/04/06 07:53:40;;;;;;;17.58;5.80;;;;;;;;;;5137329;27;20047;-33
2022/04/06 07:56:06;;;;;;;18.20;4.90;;;;;;;;;;5137257;27;20047;-32
2022/04/06 07:58:33;;;;;;;14.85;4.82;;;;;;;;;;5137229;27;20047;-32
2022/04/06 08:01:01;;;;;;;8.45;3.15;;;;;;;;;;5137157;27;20630;-32
2022/04/06 08:03:27;;;;;;;15.40;4.85;;;;;;;;;;5118675;27;20400;-32
2022/04/06 08:05:53;;;;;;;20.33;4.88;;;;;;;;;;5137609;27;20043;-33
2022/04/06 08:08:19;;;;;;;16.58;4.55;;;;;;;;;;5118950;27;20047;-33
2022/04/06 08:10:45;;;;;;;14.40;3.80;;;;;;;;;;5137543;27;20353;-33
2022/04/06 08:13:11;;;;;;;15.27;4.55;;;;;;;;;;5118826;27;20134;-34
2022/04/06 08:15:37;;;;;;;11.52;3.42;;;;;;;;;;5101825;27;20373;-32
2022/04/06 08:18:04;;;;;;;12.27;4.45;;;;;;;;;;5137665;27;20070;-32
2022/04/06 08:20:30;;;;;;;10.82;3.83;;;;;;;;;;5136754;27;20050;-32
2022/04/06 08:22:56;;;;;;;20.73;4.65;;;;;;;;;;5136757;27;20078;-32
2022/04/06 08:25:22;;;;;;;13.07;5.07;;;;;;;;;;5136675;27;20057;-32
2022/04/06 08:27:48;;;;;;;11.98;4.28;;;;;;;;;;5136659;27;20046;-31
2022/04/06 08:30:16;;;;;;;15.73;4.28;;;;;;;;;;5118228;27;20047;-32
2022/04/06 08:32:43;;;;;;;12.18;4.35;;;;;;;;;;5136555;27;20049;-31
2022/04/06 08:35:09;;;;;;;17.70;4.00;;;;;;;;;;5118263;27;20049;-32
2022/04/06 08:37:38;;;;;;;13.90;3.28;;;;;;;;;;5118336;27;20041;-32
2022/04/06 08:40:04;;;;;;;17.95;3.88;;;;;;;;;;5136353;27;20104;-32
2022/04/06 08:42:32;;;;;;;13.90;5.47;;;;;;;;;;5136420;27;20131;-32
2022/04/06 08:45:01;;;;;;;15.02;3.58;;;;;;;;;;5118737;27;20369;-32
2022/04/06 08:47:29;;;;;;;14.98;3.90;;;;;;;;;;5117003;27;20392;-32
2022/04/06 08:49:56;;;;;;;17.42;5.15;;;;;;;;;;5136960;27;20493;-37
2022/04/06 08:52:22;;;;;;;9.45;3.00;;;;;;;;;;5136142;27;20043;-35
2022/04/06 08:54:48;;;;;;;13.45;3.60;;;;;;;;;;5118859;27;20057;-36
2022/04/06 08:57:14;;;;;;;15.43;3.05;;;;;;;;;;5117838;27;20047;-34
2022/04/06 08:59:41;;;;;;;15.35;4.00;;;;;;;;;;5135909;27;20172;-34
2022/04/06 09:02:08;;;;;;;8.95;2.55;;;;;;;;;;5117792;27;20051;-35
2022/04/06 09:04:35;;;;;;;19.55;3.90;;;;;;;;;;5117319;27;20054;-35
2022/04/06 09:07:09;;;;;;;12.30;3.38;;;;;;;;;;5117411;27;20553;-37
2022/04/06 09:09:36;;;;;;;16.98;3.78;;;;;;;;;;5118103;27;20430;-40
2022/04/06 09:12:07;;;;;;;10.10;2.55;;;;;;;;;;5135761;27;20511;-35
2022/04/06 09:14:36;;;;;;;16.27;3.53;;;;;;;;;;5100365;27;20051;-36
2022/04/06 09:17:05;;;;;;;14.55;3.55;;;;;;;;;;5136247;27;20053;-38
2022/04/06 09:19:32;;;;;;;9.63;2.83;;;;;;;;;;5135834;27;20039;-36
2022/04/06 09:21:58;;;;;;;11.27;3.83;;;;;;;;;;5135558;27;20078;-37
2022/04/06 09:24:26;;;;;;;11.27;3.08;;;;;;;;;;5135540;27;20054;-39
2022/04/06 09:26:57;;;;;;;17.75;3.85;;;;;;;;;;5135483;27;20055;-39
2022/04/06 09:29:23;;;;;;;13.13;3.38;;;;;;;;;;5117118;27;20528;-40
2022/04/06 09:31:49;;;;;;;14.32;2.90;;;;;;;;;;5135965;27;20134;-40
2022/04/06 09:34:16;;;;;;;11.27;3.65;;;;;;;;;;5135628;27;20047;-41
2022/04/06 09:36:42;;;;;;;7.72;3.22;;;;;;;;;;5117833;27;20050;-39
2022/04/06 09:39:08;;;;;;;9.27;3.22;;;;;;;;;;5135233;27;20043;-39
2022/04/06 09:41:54;;;;;;;6.45;2.45;;;;;;;;;;5135483;27;20047;-40
2022/04/06 09:50:14;;;;;;;11.50;3.65;;;;;;;;;;5135102;27;20089;-39
2022/04/06 09:52:41;;;;;;;13.85;3.58;;;;;;;;;;5135626;27;20131;-41
2022/04/06 09:55:12;;;;;;;11.70;2.85;;;;;;;;;;5135565;27;20436;-40
2022/04/06 09:57:51;;;;;;;15.07;3.55;;;;;;;;;;5135031;27;20047;-40
2022/04/06 10:00:19;;;;;;;12.63;2.90;;;;;;;;;;5134166;27;20078;-40
2022/04/06 10:02:48;;;;;;;10.15;2.88;;;;;;;;;;5134913;27;20046;-41
2022/04/06 10:05:15;;;;;;;13.85;3.63;;;;;;;;;;5135150;27;20173;-41
2022/04/06 10:07:43;;;;;;;14.02;3.15;;;;;;;;;;5135182;27;20051;-41
2022/04/06 10:10:09;;;;;;;14.55;4.07;;;;;;;;;;5135634;27;20121;-41
2022/04/06 10:12:36;;;;;;;14.85;3.90;;;;;;;;;;5134412;27;20460;-41
2022/04/06 10:15:02;;;;;;;7.80;2.95;;;;;;;;;;5134624;27;20042;-42
2022/04/06 10:17:32;;;;;;;16.88;3.78;;;;;;;;;;5134667;27;20058;-42
2022/04/06 10:20:06;;;;;;;10.68;3.42;;;;;;;;;;5134295;27;20492;-42
2022/04/06 10:22:38;;;;;;;14.75;4.07;;;;;;;;;;5135210;27;20084;-42
2022/04/06 10:25:33;;;;;;;15.18;3.42;;;;;;;;;;5134955;28;20104;-42
2022/04/06 10:28:01;;;;;;;21.60;4.40;;;;;;;;;;5027862;28;20068;-42
2022/04/06 10:30:29;;;;;;;16.55;4.40;;;;;;;;;;5134576;28;20074;-42
2022/04/06 10:32:59;;;;;;;13.38;3.85;;;;;;;;;;5127746;28;20051;-41
2022/04/06 10:35:36;;;;;;;15.30;3.67;;;;;;;;;;5131649;28;20043;-43
2022/04/06 10:38:05;;;;;;;13.65;3.65;;;;;;;;;;5134629;28;20120;-40
2022/04/06 10:40:47;;;;;;;21.98;4.68;;;;;;;;;;5134410;28;20134;-39
2022/04/06 10:43:31;;;;;;;18.85;5.68;;;;;;;;;;5125301;28;20052;-36
2022/04/06 10:45:58;;;;;;;20.25;6.85;;;;;;;;;;5120253;28;20093;-41
2022/04/06 10:48:25;;;;;;;17.45;5.65;;;;;;;;;;5126308;28;20051;-41
2022/04/06 10:50:51;;;;;;;19.77;5.22;;;;;;;;;;5114430;28;20039;-41
2022/04/06 10:53:20;;;;;;;21.88;5.70;;;;;;;;;;5119598;28;20385;-39
2022/04/06 10:56:12;;;;;;;9.80;3.42;;;;;;;;;;5116284;28;20477;-37
2022/04/06 10:59:08;;;;;;;14.95;3.88;;;;;;;;;;5120563;28;20055;-35
2022/04/06 11:01:34;;;;;;;26.85;6.63;;;;;;;;;;5105840;28;20088;-40
2022/04/06 11:04:03;;;;;;;15.63;4.60;;;;;;;;;;5119424;28;20156;-39
2022/04/06 11:06:48;;;;;;;18.00;4.47;;;;;;;;;;5120913;28;20554;-38
2022/04/06 11:12:20;;;;;;;25.20;5.68;;;;;;;;;;5108113;27;20062;-39
2022/04/06 11:14:47;;;;;;;16.67;4.72;;;;;;;;;;5124447;27;20043;-38
2022/04/06 11:17:34;;;;;;;14.80;3.28;;;;;;;;;;5129178;27;20043;-39
2022/04/06 11:20:01;;;;;;;19.38;4.90;;;;;;;;;;5127092;27;20050;-35
2022/04/06 11:22:27;;;;;;;19.00;4.32;;;;;;;;;;5125536;27;20065;-35
2022/04/06 11:24:57;;;;;;;20.90;5.15;;;;;;;;;;5127725;27;20126;-35
2022/04/06 11:27:33;;;;;;;27.75;6.60;;;9.80;99.90;;;;;;5126118;27;20070;-40
2022/04/06 11:30:00;;;;;;;12.40;4.75;;;9.90;99.90;;;;;;5125518;27;20082;-41
2022/04/06 11:32:26;;;;;;;22.75;5.25;;;9.90;99.90;;;;;;5123146;27;20405;-39
2022/04/06 11:34:59;;;;;;;17.02;4.25;;;10.20;99.90;;;;;;5130881;27;20045;-39
2022/04/06 11:37:25;;;;;;;18.58;4.25;;;10.20;99.90;;;;;;5133484;27;20047;-39
2022/04/06 11:39:56;;;;;;;13.57;2.92;;;10.40;99.90;;;;;;5087902;27;20047;-38
2022/04/06 11:42:22;;;;;;;17.88;4.97;;;10.10;99.90;;;;;;5122854;27;20491;-39
2022/04/06 11:44:48;;;;;;;14.10;3.50;;;10.20;99.90;;;;;;5106458;27;20056;-38
2022/04/06 11:47:13;;;;;;;13.27;2.80;;;10.20;99.90;;;;;;5123718;27;20107;-39
2022/04/06 11:49:39;;;;;;;18.98;3.97;;;10.20;1.00;;;;;;5128306;27;20038;-39
2022/04/06 11:52:06;;;;;;;18.80;3.33;;;10.20;13.20;;;;;;5124560;27;20062;-38
2022/04/06 11:54:32;;;;;;;9.70;2.60;;;10.20;1.00;;;;;;5125054;27;20043;-39
2022/04/06 11:56:58;;;;;;;11.50;2.97;;;10.20;99.90;;;;;;5125824;27;20051;-39
2022/04/06 11:59:25;;;;;;;12.40;2.45;;;10.50;1.00;;;;;;5123680;27;20071;-40
2022/04/06 12:01:54;;;;;;;14.48;3.53;;;10.60;1.00;;;;;;5110985;27;20104;-39
2022/04/06 12:04:24;;;;;;;12.25;3.10;;;10.80;99.90;;;;;;5121950;27;20055;-41
2022/04/06 12:06:54;;;;;;;12.05;3.33;;;10.90;99.90;;;;;;5123700;27;20075;-41
2022/04/06 12:09:21;;;;;;;13.27;3.50;;;11.00;99.90;;;;;;5108874;27;20044;-41
2022/04/06 12:11:53;;;;;;;11.05;2.80;;;11.20;80.90;;;;;;5105359;27;20066;-42
2022/04/06 12:14:20;;;;;;;16.20;4.00;;;11.30;99.90;;;;;;5125800;27;20052;-42
2022/04/06 12:16:49;;;;;;;6.70;2.38;;;11.40;1.00;;;;;;5125513;27;20112;-42
2022/04/06 12:19:18;;;;;;;9.95;2.55;;;11.50;99.90;;;;;;5126158;27;20050;-43
2022/04/06 12:21:45;;;;;;;13.43;2.88;;;11.60;99.90;;;;;;5124043;27;20043;-43
2022/04/06 12:24:12;;;;;;;11.68;2.63;;;11.80;99.90;;;;;;5124277;27;20039;-43
2022/04/06 12:26:45;;;;;;;16.08;3.95;;;11.70;99.90;;;;;;5126118;27;20051;-43
2022/04/06 12:29:14;;;;;;;;;;;11.60;99.90;;;;;;5124243;27;20093;-43
2022/04/06 12:31:42;;;;;;;10.02;2.60;;;11.30;39.80;;;;;;5123538;27;19921;-44
2022/04/06 12:34:09;;;;;;;13.20;2.67;;;11.00;62.90;;;;;;5126210;27;20047;-44
2022/04/06 12:36:35;;;;;;;20.00;3.33;;;10.90;99.90;;;;;;5122203;27;20051;-43
2022/04/06 12:39:08;;;;;;;10.15;2.80;;;10.80;99.90;;;;;;5128006;27;20051;-44
2022/04/06 12:41:35;;;;;;;;;;;10.90;99.90;;;;;;5103118;27;20607;-42
2022/04/06 12:44:04;;;;;;;13.05;3.08;;;11.20;99.90;;;;;;5123951;27;19926;-43
2022/04/06 12:46:44;;;;;;;14.35;3.50;;;11.30;99.90;;;;;;5121191;27;20104;-43
2022/04/06 12:49:35;;;;;;;13.20;2.58;;;11.30;99.90;;;;;;5104684;27;20039;-42
2022/04/06 12:52:23;;;;;;;15.45;3.70;;;11.10;99.90;;;;;;5125270;27;20043;-45
2022/04/06 12:54:51;;;;;;;10.40;2.30;;;11.00;99.90;;;;;;5122110;27;20559;-43
2022/04/06 12:57:20;;;;;;;10.07;3.13;;;11.10;99.90;;;;;;5126427;27;20035;-46
2022/04/06 13:00:18;;;;;;;19.13;4.22;;;11.30;99.90;;;;;;5122463;27;20039;-43
2022/04/06 13:02:50;;;;;;;17.25;3.15;;;11.40;99.90;;;;;;5106613;27;20074;-44
2022/04/06 13:05:21;;;;;;;13.43;3.05;;;11.30;50.00;;;;;;5123555;27;20409;-43
2022/04/06 13:07:49;;;;;;;11.48;3.28;;;11.20;5.00;;;;;;5122068;27;20174;-45
2022/04/06 13:10:35;;;;;;;8.45;2.47;;;11.20;99.90;;;;;;5125201;27;20043;-49
2022/04/06 13:13:01;;;;;;;13.50;2.97;;;11.40;99.90;;;;;;5091594;27;20096;-43
2022/04/06 13:15:28;;;;;;;10.77;2.95;;;11.40;11.60;;;;;;5121123;27;20074;-43
2022/04/06 13:17:54;;;;;;;9.02;2.53;;;11.30;62.50;;;;;;5119462;27;20150;-44
2022/04/06 13:20:22;;;;;;;13.10;2.58;;;11.40;1.00;;;;;;5122485;27;20480;-45
2022/04/06 13:22:52;;;;;;;14.40;3.20;;;11.40;65.50;;;;;;5121193;27;20075;-43
2022/04/06 13:25:17;;;;;;;9.43;2.50;;;11.40;99.90;;;;;;5123416;27;20044;-47
2022/04/06 13:27:44;;;;;;;12.35;2.70;;;11.40;1.00;;;;;;5119896;27;20054;-43
2022/04/06 13:30:12;;;;;;;11.40;2.75;;;11.40;32.30;;;;;;5103045;27;20070;-44
2022/04/06 13:32:38;;;;;;;14.07;3.20;;;11.30;1.00;;;;;;5121574;27;20043;-43
2022/04/06 13:35:05;;;;;;;15.63;3.08;;;11.30;99.90;;;;;;5084302;27;20400;-45
2022/04/06 13:37:31;;;;;;;10.68;2.22;;;11.30;82.30;;;;;;5121077;27;20047;-42
2022/04/06 13:39:57;;;;;;;11.55;3.05;;;11.30;99.90;;;;;;5122729;27;20032;-43
2022/04/06 13:42:23;;;;;;;10.10;2.40;;;11.20;43.30;;;;;;5105333;27;20688;-43
2022/04/06 13:44:49;;;;;;;14.02;3.60;;;11.20;77.50;;;;;;5104256;27;20047;-43
2022/04/06 13:47:15;;;;;;;7.90;2.03;;;11.20;9.50;;;;;;5121936;27;20050;-43
2022/04/06 13:49:40;;;;;;;9.27;2.15;;;11.20;97.70;;;;;;5122593;27;20506;-43
2022/04/06 13:52:06;;;;;;;8.57;2.22;;;11.30;1.00;;;;;;5085552;27;20041;-44
2022/04/06 13:54:33;;;;;;;5.50;1.40;;;11.30;1.00;;;;;;5121935;27;20043;-43
2022/04/06 13:56:59;;;;;;;10.02;1.77;;;11.30;1.00;;;;;;5103851;28;20474;-43
2022/04/06 13:59:25;;;;;;;9.27;2.47;;;11.30;82.30;;;;;;5121134;27;20052;-44
2022/04/06 14:01:52;;;;;;;10.10;1.98;;;11.30;1.00;;;;;;5120895;27;20043;-43
2022/04/06 14:04:18;;;;;;;8.93;1.35;;;11.30;9.60;;;;;;5101078;27;20093;-46
2022/04/06 14:06:45;;;;;;;11.38;2.55;;;11.30;1.00;;;;;;5120083;27;20059;-43
2022/04/06 14:09:11;;;;;;;9.55;2.38;;;11.20;99.90;;;;;;5125441;27;20122;-42
2022/04/06 14:11:39;;;;;;;11.20;2.85;;;11.10;99.90;;;;;;5101983;28;20042;-43
2022/04/06 14:14:05;;;;;;;10.75;2.00;;;10.90;99.90;;;;;;5122069;27;20047;-43
2022/04/06 14:16:33;;;;;;;6.53;2.50;;;10.80;1.00;;;;;;5126593;27;20104;-44
2022/04/06 14:18:59;;;;;;;8.65;1.70;;;10.60;1.00;;;;;;5104518;27;20043;-43
2022/04/06 14:21:32;;;;;;;10.30;2.05;;;10.30;82.00;;;;;;5132674;27;20099;-46
2022/04/06 14:23:59;;;;;;;4.82;0.98;;;10.20;99.90;;;;;;5133845;28;20051;-44